createdAt,value
2018-04-02T00:01:45.592Z,28.47
2018-04-02T00:04:13.034Z,28.17
2018-04-02T00:06:40.523Z,27.93
2018-04-02T00:09:07.962Z,26.60
2018-04-02T00:11:35.434Z,26.90
2018-04-02T00:14:02.895Z,26.87
2018-04-02T00:16:30.332Z,27.40
2018-04-02T00:18:58.595Z,29.77
2018-04-02T00:21:26.043Z,28.63
2018-04-02T00:23:53.503Z,27.70
2018-04-02T00:26:20.964Z,26.90
2018-04-02T00:28:48.406Z,28.87
2018-04-02T00:31:15.876Z,27.70
2018-04-02T00:33:43.346Z,27.57
2018-04-02T00:36:10.791Z,26.63
2018-04-02T00:38:38.253Z,26.90
2018-04-02T00:41:05.694Z,26.60
2018-04-02T00:43:33.156Z,26.63
2018-04-02T00:46:00.599Z,27.23
2018-04-02T00:48:28.051Z,26.13
2018-04-02T00:50:56.267Z,25.50
2018-04-02T00:53:23.715Z,25.87
2018-04-02T00:55:51.174Z,27.10
2018-04-02T00:58:18.652Z,27.07
2018-04-02T01:00:46.115Z,27.13
2018-04-02T01:03:13.567Z,26.20
2018-04-02T01:05:41.020Z,26.40
2018-04-02T01:08:09.196Z,26.27
2018-04-02T01:10:37.402Z,27.30
2018-04-02T01:13:04.928Z,25.90
2018-04-02T01:15:33.179Z,27.57
2018-04-02T01:18:00.632Z,26.50
2018-04-02T01:20:28.080Z,27.40
2018-04-02T01:22:55.555Z,27.00
2018-04-02T01:25:23.087Z,27.10
2018-04-02T01:27:50.500Z,27.30
2018-04-02T01:30:17.951Z,26.03
2018-04-02T01:32:45.416Z,28.70
2018-04-02T01:35:13.532Z,27.23
2018-04-02T01:37:41.737Z,24.53
2018-04-02T01:40:09.198Z,25.03
2018-04-02T01:42:36.668Z,25.77
2018-04-02T01:45:04.108Z,25.20
2018-04-02T01:47:31.562Z,25.00
2018-04-02T01:49:59.841Z,25.87
2018-04-02T01:52:27.248Z,26.63
2018-04-02T01:54:54.730Z,24.40
2018-04-02T01:57:22.213Z,23.73
2018-04-02T01:59:49.660Z,25.67
2018-04-02T02:02:17.152Z,26.07
2018-04-02T02:04:45.382Z,25.23
2018-04-02T02:07:12.826Z,24.03
2018-04-02T02:09:40.283Z,23.97
2018-04-02T02:12:07.714Z,24.57
2018-04-02T02:14:35.928Z,23.67
2018-04-02T02:17:03.386Z,24.20
2018-04-02T02:19:30.841Z,22.63
2018-04-02T02:21:58.290Z,22.93
2018-04-02T02:24:26.516Z,22.57
2018-04-02T02:26:53.963Z,22.03
2018-04-02T02:29:21.418Z,22.20
2018-04-02T02:31:48.874Z,22.13
2018-04-02T02:34:16.333Z,21.67
2018-04-02T02:36:44.542Z,21.50
2018-04-02T02:39:12.000Z,22.23
2018-04-02T02:41:40.217Z,22.57
2018-04-02T02:44:07.658Z,21.13
2018-04-02T02:46:35.110Z,22.03
2018-04-02T02:49:02.571Z,21.07
2018-04-02T02:51:30.043Z,22.30
2018-04-02T02:53:57.528Z,21.37
2018-04-02T02:56:24.994Z,21.63
2018-04-02T02:58:52.450Z,21.80
2018-04-02T03:01:19.898Z,22.13
2018-04-02T03:03:47.353Z,22.70
2018-04-02T03:06:14.802Z,21.53
2018-04-02T03:08:42.248Z,20.97
2018-04-02T03:13:43.734Z,20.33
2018-04-02T03:16:11.934Z,20.93
2018-04-02T03:18:39.389Z,24.07
2018-04-02T03:21:06.847Z,22.43
2018-04-02T03:23:34.298Z,20.80
2018-04-02T03:26:01.750Z,21.77
2018-04-02T03:28:29.202Z,21.13
2018-04-02T03:30:57.423Z,22.03
2018-04-02T03:33:24.907Z,22.43
2018-04-02T03:35:52.379Z,22.33
2018-04-02T03:38:19.874Z,21.60
2018-04-02T03:40:48.142Z,19.80
2018-04-02T03:43:15.552Z,20.73
2018-04-02T03:45:43.008Z,21.73
2018-04-02T03:48:10.488Z,20.70
2018-04-02T03:50:37.974Z,19.43
2018-04-02T03:53:05.402Z,20.53
2018-04-02T03:55:32.855Z,20.93
2018-04-02T03:58:00.322Z,19.70
2018-04-02T04:00:27.780Z,20.17
2018-04-02T04:02:55.265Z,21.70
2018-04-02T04:05:22.786Z,22.53
2018-04-02T04:07:51.007Z,22.03
2018-04-02T04:10:19.267Z,20.93
2018-04-02T04:12:46.707Z,22.50
2018-04-02T04:15:14.936Z,20.73
2018-04-02T04:17:43.222Z,20.73
2018-04-02T04:20:10.686Z,20.93
2018-04-02T04:22:38.159Z,20.57
2018-04-02T04:25:05.624Z,21.57
2018-04-02T04:27:33.072Z,20.87
2018-04-02T04:30:00.524Z,20.20
2018-04-02T04:32:27.983Z,20.30
2018-04-02T04:34:56.195Z,20.73
2018-04-02T04:37:23.645Z,20.43
2018-04-02T04:39:51.100Z,19.53
2018-04-02T04:42:18.558Z,20.30
2018-04-02T04:44:46.019Z,20.10
2018-04-02T04:47:13.443Z,18.77
2018-04-02T04:49:40.922Z,19.60
2018-04-02T04:52:08.916Z,20.60
2018-04-02T04:54:36.394Z,21.70
2018-04-02T04:57:03.849Z,21.80
2018-04-02T04:59:31.329Z,22.87
2018-04-02T05:01:58.789Z,19.87
2018-04-02T05:04:26.257Z,21.90
2018-04-02T05:06:53.711Z,20.77
2018-04-02T05:09:21.978Z,24.40
2018-04-02T05:11:49.437Z,22.40
2018-04-02T05:14:16.900Z,21.30
2018-04-02T05:16:44.369Z,23.10
2018-04-02T05:19:11.829Z,24.33
2018-04-02T05:21:39.336Z,23.43
2018-04-02T05:24:07.569Z,25.33
2018-04-02T05:26:35.025Z,21.80
2018-04-02T05:29:02.700Z,24.97
2018-04-02T05:31:30.146Z,21.23
2018-04-02T05:33:57.598Z,23.57
2018-04-02T05:36:25.038Z,23.87
2018-04-02T05:38:53.265Z,24.23
2018-04-02T05:41:20.721Z,25.03
2018-04-02T05:43:48.211Z,23.90
2018-04-02T05:46:15.678Z,25.43
2018-04-02T05:48:43.170Z,23.77
2018-04-02T05:51:11.388Z,25.30
2018-04-02T05:53:38.846Z,24.83
2018-04-02T05:56:06.297Z,22.00
2018-04-02T05:58:33.749Z,22.83
2018-04-02T06:01:01.960Z,22.07
2018-04-02T06:03:29.442Z,20.53
2018-04-02T06:05:56.893Z,22.50
2018-04-02T06:08:24.347Z,21.47
2018-04-02T06:10:52.570Z,22.30
2018-04-02T06:13:20.024Z,22.60
2018-04-02T06:15:47.489Z,21.57
2018-04-02T06:18:14.931Z,22.00
2018-04-02T06:20:42.394Z,24.10
2018-04-02T06:23:09.997Z,22.73
2018-04-02T06:25:38.226Z,23.13
2018-04-02T06:28:05.684Z,22.57
2018-04-02T06:33:07.920Z,21.50
2018-04-02T06:35:35.413Z,23.67
2018-04-02T06:38:02.851Z,21.50
2018-04-02T06:40:31.073Z,22.37
2018-04-02T06:42:58.509Z,23.03
2018-04-02T06:45:26.737Z,22.93
2018-04-02T06:47:54.189Z,23.40
2018-04-02T06:50:21.650Z,29.98
2018-04-02T06:52:49.106Z,25.07
2018-04-02T06:55:16.564Z,25.00
2018-04-02T06:57:44.025Z,23.70
2018-04-02T07:00:11.510Z,25.60
2018-04-02T07:02:39.019Z,26.43
2018-04-02T07:05:07.244Z,25.90
2018-04-02T07:07:34.706Z,26.03
2018-04-02T07:10:02.923Z,25.60
2018-04-02T07:12:30.385Z,27.23
2018-04-02T07:14:57.819Z,27.50
2018-04-02T07:17:25.314Z,28.43
2018-04-02T07:19:52.727Z,29.20
2018-04-02T07:22:20.185Z,27.10
2018-04-02T07:24:48.405Z,29.23
2018-04-02T07:27:15.863Z,29.53
2018-04-02T07:29:43.304Z,30.33
2018-04-02T07:32:10.776Z,29.50
2018-04-02T07:34:38.236Z,30.17
2018-04-02T07:37:05.694Z,29.90
2018-04-02T07:39:33.148Z,31.13
2018-04-02T07:42:00.600Z,31.03
2018-04-02T07:44:28.030Z,31.70
2018-04-02T07:46:55.488Z,30.77
2018-04-02T07:49:22.940Z,32.00
2018-04-02T07:51:50.388Z,30.53
2018-04-02T07:54:17.864Z,30.77
2018-04-02T07:56:45.355Z,33.63
2018-04-02T07:59:13.578Z,33.80
2018-04-02T08:01:41.043Z,35.07
2018-04-02T08:04:08.488Z,36.00
2018-04-02T08:06:35.936Z,36.30
2018-04-02T08:09:03.410Z,33.70
2018-04-02T08:11:30.855Z,33.47
2018-04-02T08:13:59.090Z,31.17
2018-04-02T08:16:26.552Z,34.17
2018-04-02T08:18:54.050Z,33.67
2018-04-02T08:21:22.326Z,32.57
2018-04-02T08:23:49.742Z,33.80
2018-04-02T08:26:18.095Z,31.33
2018-04-02T08:28:45.593Z,33.70
2018-04-02T08:31:13.052Z,31.37
2018-04-02T08:33:41.285Z,30.37
2018-04-02T08:36:09.504Z,33.57
2018-04-02T08:38:36.964Z,32.10
2018-04-02T08:41:04.433Z,31.90
2018-04-02T08:43:31.910Z,34.30
2018-04-02T08:45:59.352Z,31.97
2018-04-02T08:48:26.824Z,32.23
2018-04-02T08:50:54.279Z,30.70
2018-04-02T08:53:21.717Z,32.13
2018-04-02T08:55:49.167Z,30.60
2018-04-02T08:58:17.444Z,32.37
2018-04-02T09:00:45.660Z,30.27
2018-04-02T09:03:13.117Z,32.33
2018-04-02T09:05:40.608Z,30.80
2018-04-02T09:08:08.050Z,29.43
2018-04-02T09:10:35.531Z,30.47
2018-04-02T09:13:02.986Z,29.50
2018-04-02T09:15:30.464Z,30.10
2018-04-02T09:17:57.933Z,30.83
2018-04-02T09:20:25.400Z,28.97
2018-04-02T09:22:52.854Z,28.53
2018-04-02T09:25:20.304Z,28.50
2018-04-02T09:27:47.763Z,28.13
2018-04-02T09:30:15.248Z,29.03
2018-04-02T09:32:42.716Z,28.97
2018-04-02T09:35:10.204Z,27.13
2018-04-02T09:37:38.406Z,26.37
2018-04-02T09:40:05.861Z,26.90
2018-04-02T09:42:33.357Z,27.60
2018-04-02T09:45:00.810Z,26.60
2018-04-02T09:47:28.371Z,26.03
2018-04-02T09:49:55.817Z,26.03
2018-04-02T09:52:23.609Z,25.77
2018-04-02T09:54:51.089Z,26.20
2018-04-02T09:57:18.514Z,27.30
2018-04-02T09:59:46.016Z,25.37
2018-04-02T10:02:13.498Z,26.10
2018-04-02T10:04:42.882Z,26.00
2018-04-02T10:07:10.168Z,25.97
2018-04-02T10:09:37.626Z,23.97
2018-04-02T10:12:05.255Z,25.40
2018-04-02T10:14:32.713Z,25.60
2018-04-02T10:17:00.174Z,25.40
2018-04-02T10:19:27.649Z,25.27
2018-04-02T10:21:55.108Z,24.47
2018-04-02T10:24:22.617Z,23.80
2018-04-02T10:26:50.074Z,25.07
2018-04-02T10:29:17.607Z,24.37
2018-04-02T10:31:45.005Z,25.13
2018-04-02T10:34:12.460Z,24.57
2018-04-02T10:36:39.942Z,23.90
2018-04-02T10:39:07.378Z,22.80
2018-04-02T10:41:34.844Z,21.97
2018-04-02T10:44:02.318Z,22.43
2018-04-02T10:46:29.760Z,22.60
2018-04-02T10:48:57.210Z,22.93
2018-04-02T10:51:24.692Z,23.20
2018-04-02T10:53:52.196Z,22.10
2018-04-02T10:56:19.599Z,22.83
2018-04-02T10:58:47.080Z,22.97
2018-04-02T11:01:14.541Z,23.23
2018-04-02T11:03:41.983Z,22.47
2018-04-02T11:06:09.488Z,22.50
2018-04-02T11:08:36.929Z,20.90
2018-04-02T11:11:04.382Z,22.73
2018-04-02T11:13:31.885Z,21.60
2018-04-02T11:15:59.405Z,21.73
2018-04-02T11:18:26.874Z,22.07
2018-04-02T11:20:54.358Z,21.93
2018-04-02T11:23:21.799Z,23.07
2018-04-02T11:25:49.250Z,21.93
2018-04-02T11:28:16.726Z,21.87
2018-04-02T11:30:44.955Z,20.53
2018-04-02T11:33:13.182Z,20.10
2018-04-02T11:35:40.638Z,19.30
2018-04-02T11:38:08.082Z,19.30
2018-04-02T11:40:35.574Z,19.63
2018-04-02T11:43:03.032Z,19.40
2018-04-02T11:45:30.511Z,21.03
2018-04-02T11:47:57.971Z,19.60
2018-04-02T11:50:25.431Z,18.97
2018-04-02T11:52:52.930Z,19.17
2018-04-02T11:55:20.347Z,16.93
2018-04-02T11:57:47.804Z,17.57
2018-04-02T12:00:15.264Z,18.23
2018-04-02T12:02:42.722Z,16.37
2018-04-02T12:07:44.027Z,16.40
2018-04-02T12:10:11.520Z,17.27
2018-04-02T12:12:39.753Z,15.10
2018-04-02T12:15:07.993Z,13.53
2018-04-02T12:17:35.437Z,13.67
2018-04-02T12:20:03.667Z,13.37
2018-04-02T12:22:31.119Z,14.40
2018-04-02T12:24:58.583Z,14.00
2018-04-02T12:27:27.031Z,15.20
2018-04-02T12:29:55.241Z,14.63
2018-04-02T12:32:22.704Z,14.57
2018-04-02T12:34:50.178Z,14.23
2018-04-02T12:37:17.641Z,15.27
2018-04-02T12:39:45.086Z,14.93
2018-04-02T12:42:12.537Z,14.80
2018-04-02T12:44:39.982Z,14.67
2018-04-02T12:47:08.221Z,13.77
2018-04-02T12:49:35.700Z,13.57
2018-04-02T12:52:03.166Z,13.33
2018-04-02T12:54:30.620Z,13.67
2018-04-02T12:56:58.066Z,13.90
2018-04-02T12:59:25.534Z,14.57
2018-04-02T13:01:53.000Z,15.27
2018-04-02T13:04:20.460Z,14.80
2018-04-02T13:06:48.690Z,14.40
2018-04-02T13:09:16.949Z,14.37
2018-04-02T13:11:44.467Z,14.43
2018-04-02T13:14:12.484Z,14.97
2018-04-02T13:16:39.994Z,14.43
2018-04-02T13:19:07.442Z,13.43
2018-04-02T13:21:34.921Z,13.23
2018-04-02T13:24:02.397Z,14.03
2018-04-02T13:26:29.827Z,12.43
2018-04-02T13:28:58.046Z,13.40
2018-04-02T13:31:25.501Z,13.10
2018-04-02T13:33:52.948Z,13.03
2018-04-02T13:36:20.409Z,12.50
2018-04-02T13:38:48.613Z,12.10
2018-04-02T13:41:16.072Z,11.43
2018-04-02T13:43:43.532Z,11.13
2018-04-02T13:46:11.004Z,11.73
2018-04-02T13:48:38.468Z,11.07
2018-04-02T13:51:05.929Z,10.97
2018-04-02T13:53:33.385Z,11.47
2018-04-02T13:56:00.860Z,11.43
2018-04-02T13:58:28.316Z,10.83
2018-04-02T14:00:55.792Z,10.00
2018-04-02T14:03:23.272Z,8.87
2018-04-02T14:05:50.714Z,8.77
2018-04-02T14:08:18.162Z,8.53
2018-04-02T14:10:45.622Z,8.53
2018-04-02T14:13:13.062Z,8.07
2018-04-02T14:15:40.514Z,8.17
2018-04-02T14:18:08.745Z,7.80
2018-04-02T14:20:36.181Z,7.93
2018-04-02T14:23:03.630Z,7.50
2018-04-02T14:25:31.064Z,7.43
2018-04-02T14:27:59.270Z,7.20
2018-04-02T14:30:26.722Z,7.87
2018-04-02T14:32:54.923Z,7.73
2018-04-02T14:35:22.371Z,6.83
2018-04-02T14:37:49.825Z,6.80
2018-04-02T14:40:18.080Z,6.20
2018-04-02T14:42:45.511Z,6.83
2018-04-02T14:45:12.963Z,6.23
2018-04-02T14:47:40.398Z,5.40
2018-04-02T14:50:07.821Z,5.87
2018-04-02T14:52:35.270Z,5.60
2018-04-02T14:55:02.719Z,5.63
2018-04-02T14:57:30.163Z,5.43
2018-04-02T14:59:57.612Z,4.87
2018-04-02T15:02:25.059Z,4.63
2018-04-02T15:04:53.274Z,4.57
2018-04-02T15:07:20.722Z,4.73
2018-04-02T15:09:48.170Z,3.97
2018-04-02T15:12:16.368Z,4.37
2018-04-02T15:14:43.814Z,4.20
2018-04-02T15:17:12.027Z,4.50
2018-04-02T15:19:39.472Z,4.10
2018-04-02T15:22:06.897Z,4.23
2018-04-02T15:24:35.103Z,6.20
2018-04-02T15:27:02.545Z,4.37
2018-04-02T15:29:30.747Z,4.77
2018-04-02T15:31:58.181Z,4.43
2018-04-02T15:34:25.619Z,4.80
2018-04-02T15:36:53.867Z,4.10
2018-04-02T15:39:21.297Z,3.90
2018-04-02T15:41:49.505Z,3.73
2018-04-02T15:44:16.966Z,4.80
2018-04-02T15:46:44.424Z,3.90
2018-04-02T15:49:12.636Z,4.17
2018-04-02T15:51:40.070Z,4.30
2018-04-02T15:54:07.514Z,4.73
2018-04-02T15:56:34.964Z,4.50
2018-04-02T15:59:03.166Z,4.50
2018-04-02T16:01:30.641Z,4.43
2018-04-02T16:03:58.108Z,4.67
2018-04-02T16:06:25.561Z,4.40
2018-04-02T16:08:52.995Z,4.90
2018-04-02T16:11:20.443Z,4.07
2018-04-02T16:13:47.894Z,4.47
2018-04-02T16:16:15.342Z,4.33
2018-04-02T16:18:42.799Z,4.40
2018-04-02T16:21:10.249Z,4.10
2018-04-02T16:23:37.719Z,4.80
2018-04-02T16:26:05.168Z,4.60
2018-04-02T16:28:32.666Z,4.37
2018-04-02T16:31:00.108Z,4.33
2018-04-02T16:33:27.554Z,4.37
2018-04-02T16:35:55.001Z,4.53
2018-04-02T16:38:22.461Z,4.43
2018-04-02T16:40:50.682Z,4.40
2018-04-02T16:43:18.119Z,4.57
2018-04-02T16:45:45.570Z,4.47
2018-04-02T16:48:13.012Z,4.77
2018-04-02T16:50:40.460Z,4.77
2018-04-02T16:53:07.915Z,4.30
2018-04-02T16:55:35.361Z,4.90
2018-04-02T16:58:02.830Z,4.53
2018-04-02T17:00:30.273Z,4.40
2018-04-02T17:02:57.717Z,4.73
2018-04-02T17:05:25.189Z,5.13
2018-04-02T17:07:52.658Z,5.47
2018-04-02T17:10:20.107Z,4.63
2018-04-02T17:12:47.587Z,4.67
2018-04-02T17:15:15.080Z,4.80
2018-04-02T17:17:42.536Z,5.23
2018-04-02T17:20:10.066Z,5.03
2018-04-02T17:22:37.472Z,5.07
2018-04-02T17:25:04.904Z,5.07
2018-04-02T17:27:32.353Z,5.55
2018-04-02T17:29:59.823Z,5.17
2018-04-02T17:32:27.258Z,5.30
2018-04-02T17:34:54.724Z,5.27
2018-04-02T17:37:22.154Z,5.40
2018-04-02T17:39:49.591Z,5.00
2018-04-02T17:42:17.072Z,4.77
2018-04-02T17:44:44.511Z,4.67
2018-04-02T17:47:11.968Z,5.83
2018-04-02T17:49:39.414Z,5.40
2018-04-02T17:52:06.871Z,4.73
2018-04-02T17:54:34.354Z,5.07
2018-04-02T17:57:01.874Z,5.33
2018-04-02T17:59:30.096Z,5.60
2018-04-02T18:01:57.579Z,5.33
2018-04-02T18:04:25.022Z,5.27
2018-04-02T18:06:52.491Z,4.87
2018-04-02T18:09:19.954Z,5.17
2018-04-02T18:11:47.410Z,5.07
2018-04-02T18:14:14.861Z,4.97
2018-04-02T18:16:42.333Z,5.13
2018-04-02T18:19:09.784Z,5.07
2018-04-02T18:21:37.270Z,4.90
2018-04-02T18:24:04.734Z,5.10
2018-04-02T18:26:32.231Z,4.83
2018-04-02T18:28:59.671Z,4.40
2018-04-02T18:31:27.118Z,4.57
2018-04-02T18:33:54.562Z,4.80
2018-04-02T18:36:22.044Z,4.17
2018-04-02T18:38:49.510Z,5.17
2018-04-02T18:41:16.970Z,4.40
2018-04-02T18:43:44.453Z,4.70
2018-04-02T18:46:11.932Z,4.77
2018-04-02T18:48:39.407Z,5.07
2018-04-02T18:51:07.618Z,4.73
2018-04-02T18:53:35.075Z,4.60
2018-04-02T18:56:02.595Z,4.40
2018-04-02T18:58:30.030Z,4.40
2018-04-02T19:00:58.247Z,4.10
2018-04-02T19:03:26.482Z,4.13
2018-04-02T19:05:53.927Z,3.80
2018-04-02T19:08:21.372Z,4.37
2018-04-02T19:10:49.610Z,4.13
2018-04-02T19:13:17.079Z,4.13
2018-04-02T19:15:44.547Z,4.60
2018-04-02T19:18:12.057Z,4.20
2018-04-02T19:20:39.552Z,3.93
2018-04-02T19:23:07.934Z,4.13
2018-04-02T19:25:35.383Z,4.43
2018-04-02T19:28:02.855Z,4.73
2018-04-02T19:30:30.292Z,4.30
2018-04-02T19:32:57.755Z,4.40
2018-04-02T19:35:25.299Z,4.40
2018-04-02T19:37:52.691Z,4.77
2018-04-02T19:40:20.150Z,4.67
2018-04-02T19:42:47.639Z,4.50
2018-04-02T19:45:15.146Z,4.30
2018-04-02T19:47:43.377Z,4.53
2018-04-02T19:50:10.805Z,4.40
2018-04-02T19:52:38.295Z,4.30
2018-04-02T19:55:05.786Z,4.33
2018-04-02T19:57:33.256Z,4.13
2018-04-02T20:00:00.775Z,4.03
2018-04-02T20:02:28.655Z,3.90
2018-04-02T20:04:56.115Z,4.47
2018-04-02T20:07:23.575Z,3.93
2018-04-02T20:09:51.064Z,4.40
2018-04-02T20:12:19.380Z,3.90
2018-04-02T20:14:47.607Z,4.63
2018-04-02T20:17:15.056Z,4.50
2018-04-02T20:19:42.524Z,3.80
2018-04-02T20:22:10.023Z,3.80
2018-04-02T20:24:38.317Z,3.87
2018-04-02T20:27:05.809Z,3.87
2018-04-02T20:29:34.290Z,3.73
2018-04-02T20:32:02.496Z,3.83
2018-04-02T20:34:29.982Z,3.97
2018-04-02T20:36:57.454Z,4.17
2018-04-02T20:39:24.924Z,4.00
2018-04-02T20:41:52.484Z,4.23
2018-04-02T20:44:20.433Z,3.73
2018-04-02T20:46:49.347Z,4.27
2018-04-02T20:49:16.794Z,4.63
2018-04-02T20:51:44.253Z,4.63
2018-04-02T20:54:11.739Z,4.53
2018-04-02T20:56:40.004Z,4.20
2018-04-02T20:59:07.901Z,4.30
2018-04-02T21:01:35.339Z,4.27
2018-04-02T21:04:02.788Z,4.40
2018-04-02T21:06:30.283Z,4.57
2018-04-02T21:08:57.723Z,4.50
2018-04-02T21:11:25.279Z,4.10
2018-04-02T21:13:53.330Z,4.47
2018-04-02T21:16:20.794Z,4.50
2018-04-02T21:18:49.027Z,4.37
2018-04-02T21:21:16.864Z,4.93
2018-04-02T21:23:44.336Z,4.53
2018-04-02T21:26:11.785Z,4.37
2018-04-02T21:28:40.126Z,4.60
2018-04-02T21:31:09.146Z,4.93
2018-04-02T21:33:37.357Z,5.20
2018-04-02T21:36:04.812Z,5.23
2018-04-02T21:38:33.136Z,5.53
2018-04-02T21:41:00.567Z,5.93
2018-04-02T21:43:28.424Z,5.50
2018-04-02T21:45:55.849Z,5.37
2018-04-02T21:48:23.299Z,5.07
2018-04-02T21:50:50.740Z,5.47
2018-04-02T21:53:18.202Z,6.03
2018-04-02T21:55:45.645Z,5.30
2018-04-02T21:58:13.100Z,5.20
2018-04-02T22:00:40.561Z,5.90
2018-04-02T22:03:08.029Z,5.90
2018-04-02T22:05:35.497Z,5.90
2018-04-02T22:08:09.633Z,5.83
2018-04-02T22:10:37.098Z,5.67
2018-04-02T22:13:04.536Z,5.70
2018-04-02T22:15:31.995Z,5.10
2018-04-02T22:17:59.465Z,5.63
2018-04-02T22:20:27.310Z,5.57
2018-04-02T22:22:55.520Z,6.17
2018-04-02T22:25:22.956Z,5.90
2018-04-02T22:27:50.739Z,6.20
2018-04-02T22:30:18.187Z,6.13
2018-04-02T22:32:45.637Z,6.47
2018-04-02T22:35:13.866Z,5.70
2018-04-02T22:37:41.335Z,6.70
2018-04-02T22:40:09.565Z,7.03
2018-04-02T22:42:38.169Z,7.87
2018-04-02T22:45:06.382Z,6.50
2018-04-02T22:47:33.856Z,5.90
2018-04-02T22:50:01.295Z,7.50
2018-04-02T22:52:28.755Z,7.33
2018-04-02T22:54:56.215Z,7.73
2018-04-02T22:57:23.676Z,7.37
2018-04-02T22:59:51.140Z,8.00
2018-04-02T23:02:18.609Z,7.70
2018-04-02T23:04:46.068Z,7.03
2018-04-02T23:07:13.520Z,8.13
2018-04-02T23:09:40.995Z,7.97
2018-04-02T23:12:09.206Z,8.83
2018-04-02T23:14:36.674Z,9.77
2018-04-02T23:17:04.123Z,8.93
2018-04-02T23:19:31.546Z,9.93
2018-04-02T23:21:58.993Z,8.57
2018-04-02T23:24:27.272Z,9.17
2018-04-02T23:26:55.551Z,9.83
2018-04-02T23:29:23.810Z,10.07
2018-04-02T23:31:51.272Z,9.17
2018-04-02T23:34:20.238Z,9.50
2018-04-02T23:36:47.700Z,9.87
2018-04-02T23:39:15.163Z,10.20
2018-04-02T23:41:42.613Z,9.43
2018-04-02T23:44:10.092Z,9.93
2018-04-02T23:46:37.534Z,10.67
2018-04-02T23:49:04.998Z,9.13
2018-04-02T23:51:32.484Z,11.63
2018-04-02T23:53:59.932Z,11.57
2018-04-02T23:56:27.375Z,11.33
2018-04-02T23:58:54.834Z,12.57
